createdAt,value
2022-12-04T00:01:24.032Z,10.63
2022-12-04T00:03:56.983Z,10.30
2022-12-04T00:06:25.753Z,10.80
2022-12-04T00:08:54.109Z,10.82
2022-12-04T00:11:24.911Z,10.75
2022-12-04T00:13:52.470Z,10.60
2022-12-04T00:16:23.679Z,10.23
2022-12-04T00:18:52.020Z,10.35
2022-12-04T00:21:21.284Z,10.45
2022-12-04T00:23:49.573Z,10.35
2022-12-04T00:26:23.486Z,10.73
2022-12-04T00:28:52.724Z,10.35
2022-12-04T00:31:23.623Z,10.85
2022-12-04T00:33:51.785Z,10.20
2022-12-04T00:36:22.003Z,10.75
2022-12-04T00:38:50.113Z,10.32
2022-12-04T00:41:20.166Z,10.48
2022-12-04T00:43:48.005Z,10.35
2022-12-04T00:46:16.479Z,9.80
2022-12-04T00:48:44.454Z,9.57
2022-12-04T00:51:15.496Z,9.68
2022-12-04T00:53:44.257Z,10.18
2022-12-04T00:56:23.890Z,10.00
2022-12-04T00:58:53.671Z,9.82
2022-12-04T01:01:23.089Z,9.88
2022-12-04T01:03:51.788Z,9.88
2022-12-04T01:06:25.903Z,9.63
2022-12-04T01:08:56.307Z,9.82
2022-12-04T01:11:25.933Z,9.73
2022-12-04T01:13:53.829Z,9.57
2022-12-04T01:16:25.131Z,9.35
2022-12-04T01:18:53.202Z,8.73
2022-12-04T01:21:21.001Z,9.55
2022-12-04T01:23:49.224Z,9.70
2022-12-04T01:26:17.099Z,9.48
2022-12-04T01:28:45.026Z,9.73
2022-12-04T01:31:15.742Z,9.27
2022-12-04T01:33:44.266Z,8.82
2022-12-04T01:36:16.657Z,8.95
2022-12-04T01:38:44.972Z,8.98
2022-12-04T01:41:15.234Z,8.45
2022-12-04T01:43:43.700Z,8.75
2022-12-04T01:46:12.085Z,8.65
2022-12-04T01:49:08.713Z,8.73
2022-12-04T01:51:41.477Z,8.18
2022-12-04T01:54:15.317Z,8.07
2022-12-04T01:57:06.690Z,8.20
2022-12-04T01:59:42.925Z,7.78
2022-12-04T02:02:15.444Z,7.95
2022-12-04T02:04:44.083Z,8.27
2022-12-04T02:07:12.195Z,7.72
2022-12-04T02:09:42.494Z,7.40
2022-12-04T02:12:23.950Z,7.65
2022-12-04T02:15:23.051Z,8.00
2022-12-04T02:18:09.366Z,7.40
2022-12-04T02:20:55.163Z,7.18
2022-12-04T02:23:45.222Z,7.53
2022-12-04T02:26:44.039Z,7.32
2022-12-04T02:29:19.266Z,7.43
2022-12-04T02:31:51.477Z,6.65
2022-12-04T02:34:21.945Z,7.15
2022-12-04T02:36:55.656Z,7.13
2022-12-04T02:39:31.602Z,7.20
2022-12-04T02:42:11.257Z,7.07
2022-12-04T02:44:45.567Z,6.55
2022-12-04T02:47:19.637Z,6.55
2022-12-04T02:49:55.232Z,6.65
2022-12-04T02:52:29.428Z,6.88
2022-12-04T02:55:08.165Z,6.63
2022-12-04T02:57:44.600Z,6.15
2022-12-04T03:00:13.031Z,7.10
2022-12-04T03:02:50.654Z,6.78
2022-12-04T03:05:22.261Z,6.72
2022-12-04T03:07:55.970Z,6.47
2022-12-04T03:10:31.796Z,6.65
2022-12-04T03:13:23.022Z,6.72
2022-12-04T03:16:01.826Z,6.32
2022-12-04T03:18:36.625Z,6.93
2022-12-04T03:21:13.429Z,6.32
2022-12-04T03:23:52.281Z,6.55
2022-12-04T03:26:33.441Z,6.60
2022-12-04T03:29:13.827Z,6.53
2022-12-04T03:31:56.728Z,6.30
2022-12-04T03:34:56.526Z,6.50
2022-12-04T03:37:34.065Z,6.15
2022-12-04T03:40:22.301Z,6.35
2022-12-04T03:43:00.433Z,6.47
2022-12-04T03:45:51.094Z,6.22
2022-12-04T03:48:36.604Z,6.40
2022-12-04T03:51:12.541Z,6.53
2022-12-04T03:53:45.907Z,5.78
2022-12-04T03:56:21.917Z,6.22
2022-12-04T03:58:56.017Z,5.68
2022-12-04T04:01:30.366Z,6.32
2022-12-04T04:04:00.685Z,6.03
2022-12-04T04:06:38.283Z,6.28
2022-12-04T04:09:12.199Z,6.07
2022-12-04T04:12:07.641Z,6.55
2022-12-04T04:15:00.231Z,6.30
2022-12-04T04:17:52.339Z,6.07
2022-12-04T04:20:48.877Z,5.85
2022-12-04T04:23:37.739Z,5.85
2022-12-04T04:26:07.295Z,5.75
2022-12-04T04:28:36.480Z,5.63
2022-12-04T04:31:32.632Z,5.82
2022-12-04T04:34:30.785Z,5.82
2022-12-04T04:37:07.298Z,5.68
2022-12-04T04:39:40.979Z,4.93
2022-12-04T04:42:32.715Z,5.75
2022-12-04T04:45:18.303Z,5.72
2022-12-04T04:47:51.977Z,5.43
2022-12-04T04:50:20.952Z,5.28
2022-12-04T04:52:59.073Z,5.72
2022-12-04T04:55:27.239Z,5.35
2022-12-04T04:57:54.755Z,5.13
2022-12-04T05:00:23.075Z,5.32
2022-12-04T05:02:50.702Z,5.10
2022-12-04T05:05:18.331Z,5.35
2022-12-04T05:07:45.999Z,5.00
2022-12-04T05:10:14.042Z,5.18
2022-12-04T05:12:41.496Z,4.80
2022-12-04T05:15:09.421Z,4.70
2022-12-04T05:17:37.076Z,4.78
2022-12-04T05:20:05.960Z,4.78
2022-12-04T05:22:36.394Z,4.57
2022-12-04T05:25:04.080Z,4.70
2022-12-04T05:27:32.040Z,4.53
2022-12-04T05:29:59.710Z,5.13
2022-12-04T05:32:29.172Z,4.68
2022-12-04T05:34:57.804Z,4.88
2022-12-04T05:37:25.854Z,4.90
2022-12-04T05:39:54.055Z,4.10
2022-12-04T05:42:21.843Z,5.22
2022-12-04T05:44:50.253Z,4.60
2022-12-04T05:47:17.842Z,4.30
2022-12-04T05:49:45.272Z,4.32
2022-12-04T05:52:12.834Z,4.45
2022-12-04T05:54:40.600Z,4.47
2022-12-04T05:57:08.393Z,4.30
2022-12-04T05:59:36.019Z,4.30
2022-12-04T06:02:03.668Z,3.65
2022-12-04T06:04:31.167Z,4.13
2022-12-04T06:06:58.730Z,4.15
2022-12-04T06:09:26.160Z,4.22
2022-12-04T06:11:57.239Z,4.22
2022-12-04T06:14:24.913Z,3.97
2022-12-04T06:16:52.665Z,3.90
2022-12-04T06:19:22.497Z,4.15
2022-12-04T06:21:53.129Z,3.88
2022-12-04T06:24:24.154Z,4.20
2022-12-04T06:27:27.352Z,4.13
2022-12-04T06:29:44.252Z,4.10
2022-12-04T06:32:14.027Z,3.97
2022-12-04T06:34:45.622Z,3.70
2022-12-04T06:37:13.136Z,4.00
2022-12-04T06:39:40.559Z,3.90
2022-12-04T06:42:07.968Z,3.65
2022-12-04T06:44:35.445Z,4.03
2022-12-04T06:47:02.886Z,3.70
2022-12-04T06:49:30.333Z,4.47
2022-12-04T06:51:57.853Z,3.88
2022-12-04T06:54:26.175Z,3.78
2022-12-04T06:56:53.714Z,3.80
2022-12-04T06:59:21.109Z,3.30
2022-12-04T07:01:48.600Z,3.97
2022-12-04T07:04:16.058Z,4.10
2022-12-04T07:06:43.518Z,3.83
2022-12-04T07:09:14.426Z,4.30
2022-12-04T07:11:43.185Z,3.42
2022-12-04T07:14:12.761Z,3.30
2022-12-04T07:16:42.380Z,3.97
2022-12-04T07:19:12.730Z,3.60
2022-12-04T07:21:40.510Z,3.35
2022-12-04T07:24:08.495Z,3.83
2022-12-04T07:26:35.972Z,3.50
2022-12-04T07:29:03.472Z,4.03
2022-12-04T07:31:31.021Z,3.60
2022-12-04T07:33:59.076Z,3.63
2022-12-04T07:36:27.496Z,3.70
2022-12-04T07:38:56.537Z,3.63
2022-12-04T07:41:24.758Z,3.70
2022-12-04T07:43:52.205Z,3.95
2022-12-04T07:46:27.756Z,3.60
2022-12-04T07:48:56.906Z,3.53
2022-12-04T07:51:26.995Z,3.70
2022-12-04T07:54:02.061Z,3.88
2022-12-04T07:56:31.045Z,3.97
2022-12-04T07:59:00.176Z,3.67
2022-12-04T08:01:27.946Z,3.53
2022-12-04T08:03:57.663Z,3.85
2022-12-04T08:06:27.686Z,3.38
2022-12-04T08:08:55.179Z,4.30
2022-12-04T08:11:25.902Z,4.53
2022-12-04T08:14:06.021Z,3.83
2022-12-04T08:16:33.866Z,3.97
2022-12-04T08:19:01.528Z,3.92
2022-12-04T08:21:30.667Z,3.70
2022-12-04T08:24:00.247Z,3.85
2022-12-04T08:26:29.600Z,3.92
2022-12-04T08:28:57.744Z,3.90
2022-12-04T08:31:28.247Z,3.72
2022-12-04T08:33:57.691Z,3.60
2022-12-04T08:36:26.699Z,3.80
2022-12-04T08:38:55.012Z,3.85
2022-12-04T08:41:24.527Z,3.97
2022-12-04T08:43:54.799Z,3.95
2022-12-04T08:46:24.357Z,3.83
2022-12-04T08:48:52.072Z,3.90
2022-12-04T08:51:22.369Z,4.05
2022-12-04T08:53:54.593Z,4.38
2022-12-04T08:56:23.490Z,3.78
2022-12-04T08:58:51.119Z,3.97
2022-12-04T09:01:19.203Z,4.38
2022-12-04T09:03:46.716Z,3.97
2022-12-04T09:06:15.845Z,4.00
2022-12-04T09:08:43.507Z,3.50
2022-12-04T09:11:19.833Z,3.30
2022-12-04T09:13:47.745Z,3.75
2022-12-04T09:16:18.453Z,3.95
2022-12-04T09:18:46.417Z,4.10
2022-12-04T09:21:16.114Z,4.60
2022-12-04T09:23:44.028Z,13.13
2022-12-04T09:26:19.839Z,18.75
2022-12-04T09:28:48.349Z,50.05
2022-12-04T09:31:16.707Z,71.55
2022-12-04T09:33:44.496Z,49.40
2022-12-04T09:36:16.160Z,42.97
2022-12-04T09:38:45.530Z,40.88
2022-12-04T09:41:27.902Z,28.83
2022-12-04T09:43:58.387Z,30.77
2022-12-04T09:46:37.454Z,29.38
2022-12-04T09:49:11.989Z,28.48
2022-12-04T09:51:42.764Z,23.67
2022-12-04T09:54:22.899Z,23.48
2022-12-04T09:57:05.630Z,22.70
2022-12-04T09:59:33.269Z,22.15
2022-12-04T10:02:18.264Z,20.10
2022-12-04T10:04:45.922Z,19.80
2022-12-04T10:07:19.983Z,18.15
2022-12-04T10:10:05.670Z,18.45
2022-12-04T10:12:54.047Z,16.98
2022-12-04T10:15:57.905Z,16.48
2022-12-04T10:18:47.723Z,15.20
2022-12-04T10:21:18.317Z,14.07
2022-12-04T10:24:13.796Z,13.90
2022-12-04T10:26:45.548Z,14.73
2022-12-04T10:29:34.533Z,13.85
2022-12-04T10:32:16.488Z,13.30
2022-12-04T10:34:45.977Z,12.38
2022-12-04T10:37:14.689Z,12.93
2022-12-04T10:39:49.612Z,10.95
2022-12-04T10:42:23.991Z,11.77
2022-12-04T10:44:52.092Z,11.18
2022-12-04T10:47:22.279Z,11.02
2022-12-04T10:49:58.539Z,11.30
2022-12-04T10:52:26.468Z,10.75
2022-12-04T10:55:02.614Z,10.25
2022-12-04T10:57:39.878Z,9.57
2022-12-04T11:00:27.110Z,9.77
2022-12-04T11:02:56.948Z,10.20
2022-12-04T11:05:37.238Z,9.23
2022-12-04T11:08:06.899Z,8.43
2022-12-04T11:10:43.388Z,8.38
2022-12-04T11:13:11.111Z,9.63
2022-12-04T11:15:50.518Z,8.65
2022-12-04T11:18:24.958Z,8.73
2022-12-04T11:21:04.608Z,7.75
2022-12-04T11:23:54.405Z,7.35
2022-12-04T11:26:35.036Z,7.95
2022-12-04T11:29:05.248Z,8.27
2022-12-04T11:31:33.190Z,7.82
2022-12-04T11:34:05.673Z,7.68
2022-12-04T11:36:42.737Z,7.03
2022-12-04T11:39:13.588Z,7.68
2022-12-04T11:41:41.554Z,7.50
2022-12-04T11:44:26.954Z,7.55
2022-12-04T11:46:57.484Z,7.53
2022-12-04T11:49:27.351Z,6.90
2022-12-04T11:52:11.183Z,6.50
2022-12-04T11:54:41.441Z,6.75
2022-12-04T11:57:50.013Z,6.88
2022-12-04T12:00:21.047Z,6.72
2022-12-04T12:03:11.570Z,6.55
2022-12-04T12:06:04.188Z,6.55
2022-12-04T12:08:50.756Z,6.30
2022-12-04T12:11:47.928Z,6.30
2022-12-04T12:14:21.721Z,6.00
2022-12-04T12:17:21.930Z,6.07
2022-12-04T12:19:55.531Z,5.95
2022-12-04T12:22:48.302Z,5.85
2022-12-04T12:25:43.401Z,5.32
2022-12-04T12:28:22.584Z,5.75
2022-12-04T12:31:07.712Z,5.90
2022-12-04T12:33:54.775Z,5.93
2022-12-04T12:36:26.585Z,5.78
2022-12-04T12:38:58.865Z,5.45
2022-12-04T12:41:34.973Z,5.32
2022-12-04T12:44:18.306Z,5.68
2022-12-04T12:46:53.440Z,5.40
2022-12-04T12:49:23.481Z,4.95
2022-12-04T12:52:01.714Z,5.05
2022-12-04T12:54:49.336Z,5.35
2022-12-04T12:57:35.488Z,4.78
2022-12-04T13:00:08.532Z,4.90
2022-12-04T13:02:54.801Z,5.15
2022-12-04T13:05:29.588Z,4.63
2022-12-04T13:08:03.411Z,4.90
2022-12-04T13:11:09.552Z,4.47
2022-12-04T13:13:45.958Z,4.55
2022-12-04T13:16:26.215Z,5.00
2022-12-04T13:19:10.019Z,4.78
2022-12-04T13:22:05.273Z,4.75
2022-12-04T13:24:47.831Z,4.57
2022-12-04T13:27:39.852Z,4.35
2022-12-04T13:30:16.186Z,4.07
2022-12-04T13:33:08.248Z,4.60
2022-12-04T13:36:06.002Z,4.40
2022-12-04T13:38:57.899Z,4.13
2022-12-04T13:41:27.727Z,4.13
2022-12-04T13:43:58.051Z,3.95
2022-12-04T13:46:29.978Z,4.25
2022-12-04T13:49:31.422Z,4.50
2022-12-04T13:52:02.284Z,4.13
2022-12-04T13:54:35.407Z,3.92
2022-12-04T13:57:15.328Z,4.30
2022-12-04T13:59:44.068Z,3.95
2022-12-04T14:02:25.987Z,3.90
2022-12-04T14:05:00.749Z,4.00
2022-12-04T14:07:33.334Z,3.90
2022-12-04T14:10:05.485Z,3.72
2022-12-04T14:12:39.796Z,3.83
2022-12-04T14:15:25.595Z,3.83
2022-12-04T14:18:16.064Z,3.95
2022-12-04T14:20:47.028Z,3.97
2022-12-04T14:23:26.954Z,4.25
2022-12-04T14:25:58.844Z,4.18
2022-12-04T14:28:42.267Z,3.90
2022-12-04T14:31:22.591Z,3.95
2022-12-04T14:33:56.440Z,3.97
2022-12-04T14:36:35.810Z,3.97
2022-12-04T14:39:33.348Z,3.55
2022-12-04T14:42:29.054Z,3.88
2022-12-04T14:44:59.266Z,3.50
2022-12-04T14:47:48.779Z,4.13
2022-12-04T14:50:39.221Z,3.88
2022-12-04T14:53:25.584Z,4.30
2022-12-04T14:56:07.638Z,3.72
2022-12-04T14:58:38.077Z,3.85
2022-12-04T15:01:24.034Z,3.80
2022-12-04T15:03:59.268Z,3.65
2022-12-04T15:06:33.424Z,3.90
2022-12-04T15:09:23.644Z,3.92
2022-12-04T15:12:12.550Z,3.58
2022-12-04T15:14:45.041Z,3.80
2022-12-04T15:17:15.577Z,3.65
2022-12-04T15:19:44.041Z,4.20
2022-12-04T15:22:24.811Z,3.80
2022-12-04T15:24:53.886Z,3.47
2022-12-04T15:27:30.532Z,4.15
2022-12-04T15:30:02.842Z,3.90
2022-12-04T15:32:32.371Z,3.58
2022-12-04T15:35:10.127Z,3.70
2022-12-04T15:40:07.290Z,3.50
2022-12-04T15:42:36.259Z,3.88
2022-12-04T15:45:09.613Z,3.67
2022-12-04T15:47:50.800Z,3.72
2022-12-04T15:50:18.345Z,3.58
2022-12-04T15:53:20.736Z,3.78
2022-12-04T15:55:55.065Z,3.80
2022-12-04T15:58:29.998Z,3.13
2022-12-04T16:01:08.336Z,3.15
2022-12-04T16:03:42.130Z,3.50
2022-12-04T16:06:29.593Z,3.08
2022-12-04T16:09:18.151Z,3.60
2022-12-04T16:11:46.028Z,3.08
2022-12-04T16:14:18.233Z,3.50
2022-12-04T16:16:48.456Z,3.00
2022-12-04T16:21:40.890Z,3.60
2022-12-04T16:24:13.137Z,3.40
2022-12-04T16:26:41.968Z,3.30
2022-12-04T16:29:09.736Z,3.40
2022-12-04T16:31:38.172Z,3.42
2022-12-04T16:34:05.963Z,3.50
2022-12-04T16:36:33.624Z,3.15
2022-12-04T16:39:03.414Z,3.40
2022-12-04T16:41:31.180Z,3.40
2022-12-04T16:43:59.911Z,3.25
2022-12-04T16:46:30.372Z,3.20
2022-12-04T16:49:01.476Z,3.28
2022-12-04T16:51:31.947Z,3.42
2022-12-04T16:54:00.289Z,3.45
2022-12-04T16:56:27.816Z,3.35
2022-12-04T16:58:55.280Z,3.17
2022-12-04T17:01:29.712Z,3.25
2022-12-04T17:03:57.536Z,3.35
2022-12-04T17:06:25.192Z,3.30
2022-12-04T17:08:52.640Z,3.50
2022-12-04T17:11:20.145Z,3.45
2022-12-04T17:13:47.606Z,3.30
2022-12-04T17:16:18.530Z,3.30
2022-12-04T17:18:47.425Z,3.42
2022-12-04T17:21:14.962Z,3.45
2022-12-04T17:23:44.001Z,3.42
2022-12-04T17:26:14.600Z,3.70
2022-12-04T17:28:42.341Z,3.72
2022-12-04T17:31:18.886Z,3.97
2022-12-04T17:33:46.787Z,4.18
2022-12-04T17:36:19.757Z,4.32
2022-12-04T17:38:47.320Z,4.20
2022-12-04T17:41:16.013Z,3.80
2022-12-04T17:43:43.948Z,4.20
2022-12-04T17:46:18.933Z,4.00
2022-12-04T17:48:46.412Z,4.00
2022-12-04T17:51:16.646Z,4.03
2022-12-04T17:53:44.896Z,3.70
2022-12-04T17:56:17.416Z,4.13
2022-12-04T17:58:46.155Z,3.88
2022-12-04T18:01:17.151Z,3.40
2022-12-04T18:03:50.700Z,4.10
2022-12-04T18:06:33.448Z,4.00
2022-12-04T18:09:01.433Z,4.05
2022-12-04T18:11:31.206Z,3.75
2022-12-04T18:14:01.291Z,3.83
2022-12-04T18:16:31.005Z,3.40
2022-12-04T18:19:00.509Z,3.40
2022-12-04T18:21:29.446Z,3.83
2022-12-04T18:23:59.088Z,3.85
2022-12-04T18:26:28.278Z,4.05
2022-12-04T18:28:55.853Z,3.65
2022-12-04T18:31:23.748Z,3.70
2022-12-04T18:33:51.644Z,4.03
2022-12-04T18:36:22.302Z,3.90
2022-12-04T18:38:58.790Z,3.22
2022-12-04T18:41:27.325Z,3.55
2022-12-04T18:43:55.435Z,3.40
2022-12-04T18:46:23.490Z,3.65
2022-12-04T18:48:54.224Z,3.60
2022-12-04T18:51:21.702Z,3.80
2022-12-04T18:53:52.444Z,4.13
2022-12-04T18:56:19.904Z,3.78
2022-12-04T18:58:47.808Z,3.58
2022-12-04T19:01:18.667Z,4.53
2022-12-04T19:03:47.642Z,4.45
2022-12-04T19:06:15.773Z,4.70
2022-12-04T19:08:43.766Z,4.70
2022-12-04T19:11:15.238Z,5.32
2022-12-04T19:13:43.129Z,5.30
2022-12-04T19:16:13.401Z,4.60
2022-12-04T19:18:42.300Z,4.88
2022-12-04T19:21:09.789Z,5.20
2022-12-04T19:23:37.485Z,5.70
2022-12-04T19:26:05.339Z,5.05
2022-12-04T19:28:33.454Z,5.13
2022-12-04T19:31:00.865Z,4.93
2022-12-04T19:33:29.249Z,5.22
2022-12-04T19:36:06.249Z,5.32
2022-12-04T19:43:33.137Z,4.70
2022-12-04T19:46:01.076Z,4.90
2022-12-04T19:48:28.684Z,4.57
2022-12-04T19:50:56.430Z,4.80
2022-12-04T19:53:23.911Z,4.72
2022-12-04T19:55:51.534Z,4.75
2022-12-04T19:58:19.124Z,5.22
2022-12-04T20:00:48.265Z,4.88
2022-12-04T20:03:15.790Z,4.93
2022-12-04T20:05:43.219Z,4.97
2022-12-04T20:10:36.999Z,6.50
2022-12-04T20:13:06.134Z,7.43
2022-12-04T20:15:37.424Z,7.72
2022-12-04T20:18:05.739Z,8.55
2022-12-04T20:20:33.230Z,8.98
2022-12-04T20:23:00.735Z,9.40
2022-12-04T20:25:28.412Z,10.25
2022-12-04T20:27:55.871Z,10.68
2022-12-04T20:30:23.301Z,10.27
2022-12-04T20:32:50.847Z,10.02
2022-12-04T20:35:18.248Z,9.23
2022-12-04T20:37:45.677Z,8.90
2022-12-04T20:40:13.872Z,9.18
2022-12-04T20:42:41.283Z,8.60
2022-12-04T20:45:09.185Z,8.88
2022-12-04T20:47:37.246Z,8.27
2022-12-04T20:50:05.950Z,8.40
2022-12-04T20:52:33.466Z,8.48
2022-12-04T20:55:00.833Z,7.97
2022-12-04T20:57:28.457Z,7.68
2022-12-04T20:59:56.106Z,7.45
2022-12-04T21:02:23.922Z,7.45
2022-12-04T21:04:51.361Z,7.03
2022-12-04T21:07:18.750Z,8.13
2022-12-04T21:09:46.239Z,7.57
2022-12-04T21:12:32.172Z,7.20
2022-12-04T21:15:18.077Z,7.22
2022-12-04T21:17:45.560Z,8.45
2022-12-04T21:20:13.547Z,9.63
2022-12-04T21:22:41.113Z,10.25
2022-12-04T21:25:10.175Z,12.45
2022-12-04T21:27:37.576Z,13.73
2022-12-04T21:30:05.689Z,14.65
2022-12-04T21:32:33.146Z,15.43
2022-12-04T21:35:01.649Z,15.27
2022-12-04T21:37:30.240Z,15.32
2022-12-04T21:39:59.408Z,14.88
2022-12-04T21:42:30.528Z,15.88
2022-12-04T21:44:59.952Z,17.00
2022-12-04T21:47:27.937Z,17.45
2022-12-04T21:49:56.137Z,16.17
2022-12-04T21:52:24.630Z,17.80
2022-12-04T21:54:53.032Z,18.33
2022-12-04T21:57:22.033Z,16.90
2022-12-04T21:59:52.225Z,17.50
2022-12-04T22:02:19.959Z,17.65
2022-12-04T22:04:47.748Z,18.00
2022-12-04T22:07:15.448Z,17.42
2022-12-04T22:09:43.122Z,18.48
2022-12-04T22:12:26.789Z,17.05
2022-12-04T22:17:29.284Z,17.65
2022-12-04T22:19:57.161Z,17.42
2022-12-04T22:22:25.054Z,17.05
2022-12-04T22:24:52.528Z,17.35
2022-12-04T22:27:20.052Z,17.27
2022-12-04T22:30:01.413Z,17.50
2022-12-04T22:32:31.974Z,17.65
2022-12-04T22:34:59.646Z,16.85
2022-12-04T22:37:27.052Z,17.23
2022-12-04T22:39:54.712Z,16.88
2022-12-04T22:42:22.567Z,16.77
2022-12-04T22:44:50.261Z,16.13
2022-12-04T22:47:17.817Z,15.60
2022-12-04T22:49:45.428Z,16.15
2022-12-04T22:52:13.041Z,17.40
2022-12-04T22:54:40.602Z,16.13
2022-12-04T22:57:08.040Z,16.75
2022-12-04T22:59:35.492Z,16.40
2022-12-04T23:02:03.129Z,16.50
2022-12-04T23:04:30.883Z,16.42
2022-12-04T23:06:58.419Z,15.50
2022-12-04T23:09:27.816Z,15.68
2022-12-04T23:11:56.502Z,15.70
2022-12-04T23:14:24.702Z,16.05
2022-12-04T23:16:52.249Z,16.15
2022-12-04T23:19:20.166Z,16.67
2022-12-04T23:21:55.029Z,16.33
2022-12-04T23:24:24.806Z,17.02
2022-12-04T23:26:52.262Z,17.42
2022-12-04T23:32:07.411Z,17.48
2022-12-04T23:34:34.953Z,17.77
2022-12-04T23:37:02.366Z,17.45
2022-12-04T23:39:30.099Z,19.52
2022-12-04T23:41:57.529Z,19.65
2022-12-04T23:44:25.088Z,20.08
2022-12-04T23:46:52.500Z,20.05
2022-12-04T23:49:19.981Z,19.63
2022-12-04T23:51:47.435Z,18.95
2022-12-04T23:54:14.873Z,19.73
2022-12-04T23:56:42.296Z,19.25
2022-12-04T23:59:09.806Z,19.52
